MTA weather

Public forecast

Using degrees Celsius for public forecast. Weather courtesy of forecast.io.

Closest aviation weather report (METAR) to Matamata Glider Airport

Closest report is Auckland International Airport, 62.9 nm (116.5 km) NW. Retrieved 2020/08/11 12:00 UTC (7 minutes ago):

NZAA 111200Z AUTO 06007KT 9999 NCD 13/12 Q0999 NOSIG

Closest aviation forecast (TAF) to Matamata Glider Airport

Closest forecast is Auckland International Airport, 62.9 nm (116.5 km) NW. Retrieved 2020/08/11 12:30 UTC (0 seconds ago):

TAF NZAA 111128Z 1112/1212 04008KT 9999 FEW014 SCT025 PROB30 1115/1121 0500 FG FM112100 24010KT 9999 -SHRA FEW012 SCT018